createdAt,value
2022-12-24T00:01:23.122Z,11.63
2022-12-24T00:03:51.169Z,9.87
2022-12-24T00:06:19.928Z,10.27
2022-12-24T00:08:47.701Z,9.87
2022-12-24T00:11:15.391Z,9.77
2022-12-24T00:13:43.157Z,8.70
2022-12-24T00:16:12.827Z,9.03
2022-12-24T00:18:45.770Z,8.20
2022-12-24T00:21:14.231Z,10.70
2022-12-24T00:23:41.982Z,9.43
2022-12-24T00:26:09.606Z,9.33
2022-12-24T00:28:37.364Z,9.03
2022-12-24T00:31:08.752Z,14.73
2022-12-24T00:33:38.051Z,14.07
2022-12-24T00:36:05.964Z,12.83
2022-12-24T00:38:33.652Z,20.73
2022-12-24T00:41:02.064Z,24.37
2022-12-24T00:43:29.732Z,19.40
2022-12-24T00:45:57.639Z,25.83
2022-12-24T00:48:25.585Z,28.63
2022-12-24T00:50:54.652Z,26.77
2022-12-24T00:53:22.353Z,27.67
2022-12-24T00:55:50.175Z,26.93
2022-12-24T00:58:17.851Z,26.23
2022-12-24T01:00:45.465Z,25.20
2022-12-24T01:03:13.275Z,26.63
2022-12-24T01:05:40.935Z,29.57
2022-12-24T01:08:09.978Z,28.97
2022-12-24T01:10:37.657Z,28.97
2022-12-24T01:13:05.331Z,28.13
2022-12-24T01:15:33.035Z,26.57
2022-12-24T01:18:00.767Z,26.87
2022-12-24T01:20:31.723Z,31.73
2022-12-24T01:22:59.444Z,31.87
2022-12-24T01:25:28.491Z,31.43
2022-12-24T01:27:56.139Z,30.00
2022-12-24T01:30:23.805Z,31.13
2022-12-24T01:32:51.761Z,30.50
2022-12-24T01:35:19.479Z,26.53
2022-12-24T01:37:47.885Z,29.80
2022-12-24T01:40:33.869Z,29.57
2022-12-24T01:43:20.244Z,28.73
2022-12-24T01:45:50.059Z,28.60
2022-12-24T01:48:20.919Z,28.53
2022-12-24T01:50:49.509Z,26.23
2022-12-24T01:53:17.432Z,26.30
2022-12-24T01:55:45.964Z,26.13
2022-12-24T01:58:16.169Z,27.10
2022-12-24T02:00:43.875Z,27.10
2022-12-24T02:03:11.832Z,28.77
2022-12-24T02:05:43.413Z,24.47
2022-12-24T02:08:11.227Z,25.63
2022-12-24T02:10:38.893Z,29.60
2022-12-24T02:13:07.052Z,26.70
2022-12-24T02:15:40.462Z,28.30
2022-12-24T02:18:11.368Z,25.27
2022-12-24T02:20:50.032Z,25.80
2022-12-24T02:23:26.512Z,25.77
2022-12-24T02:26:08.312Z,25.77
2022-12-24T02:28:40.887Z,29.23
2022-12-24T02:31:12.568Z,28.43
2022-12-24T02:33:43.625Z,27.83
2022-12-24T02:36:14.395Z,29.87
2022-12-24T02:38:44.623Z,28.70
2022-12-24T02:41:14.994Z,32.47
2022-12-24T02:43:45.249Z,35.63
2022-12-24T02:46:16.379Z,27.37
2022-12-24T02:48:46.051Z,29.97
2022-12-24T02:51:13.866Z,31.33
2022-12-24T02:53:41.912Z,31.00
2022-12-24T02:56:30.222Z,34.03
2022-12-24T02:59:08.337Z,27.97
2022-12-24T03:01:43.700Z,29.83
2022-12-24T03:04:15.970Z,29.37
2022-12-24T03:06:45.723Z,29.87
2022-12-24T03:09:16.048Z,27.17
2022-12-24T03:11:45.859Z,29.00
2022-12-24T03:14:14.005Z,27.90
2022-12-24T03:16:44.073Z,30.83
2022-12-24T03:19:11.914Z,30.57
2022-12-24T03:21:42.627Z,33.13
2022-12-24T03:24:11.385Z,32.53
2022-12-24T03:26:40.013Z,34.13
2022-12-24T03:29:08.228Z,36.50
2022-12-24T03:31:44.425Z,44.07
2022-12-24T03:34:12.327Z,36.07
2022-12-24T03:36:40.013Z,41.50
2022-12-24T03:39:08.081Z,36.40
2022-12-24T03:41:36.019Z,41.77
2022-12-24T03:44:04.004Z,43.03
2022-12-24T03:46:31.739Z,41.60
2022-12-24T03:49:00.791Z,42.63
2022-12-24T03:51:28.524Z,33.63
2022-12-24T03:53:57.951Z,38.80
2022-12-24T03:56:25.624Z,44.67
2022-12-24T03:58:53.568Z,37.90
2022-12-24T04:01:21.462Z,45.20
2022-12-24T04:03:49.286Z,42.03
2022-12-24T04:06:19.047Z,51.33
2022-12-24T04:08:46.765Z,40.23
2022-12-24T04:11:15.431Z,36.70
2022-12-24T04:13:43.058Z,44.40
2022-12-24T04:16:11.888Z,46.93
2022-12-24T04:18:40.763Z,47.20
2022-12-24T04:21:09.008Z,56.53
2022-12-24T04:23:38.797Z,44.20
2022-12-24T04:26:07.742Z,64.30
2022-12-24T04:28:35.634Z,62.63
2022-12-24T04:31:04.065Z,48.00
2022-12-24T04:33:31.763Z,47.97
2022-12-24T04:36:00.022Z,46.47
2022-12-24T04:38:28.014Z,45.00
2022-12-24T04:41:00.891Z,44.90
2022-12-24T04:43:28.947Z,47.20
2022-12-24T04:45:56.700Z,39.50
2022-12-24T04:48:24.595Z,47.10
2022-12-24T04:50:52.304Z,46.10
2022-12-24T04:53:19.953Z,42.33
2022-12-24T04:55:47.659Z,45.83
2022-12-24T04:58:16.711Z,44.63
2022-12-24T05:00:44.343Z,46.60
2022-12-24T05:03:12.042Z,46.63
2022-12-24T05:05:39.908Z,49.77
2022-12-24T05:08:07.795Z,49.47
2022-12-24T05:10:35.408Z,48.40
2022-12-24T05:13:03.133Z,47.40
2022-12-24T05:15:32.434Z,45.40
2022-12-24T05:18:00.504Z,49.80
2022-12-24T05:20:28.284Z,51.67
2022-12-24T05:23:13.244Z,49.80
2022-12-24T05:25:58.241Z,54.97
2022-12-24T05:28:26.100Z,56.23
2022-12-24T05:30:55.180Z,54.33
2022-12-24T05:33:22.889Z,55.27
2022-12-24T05:35:52.247Z,51.77
2022-12-24T05:38:20.030Z,52.07
2022-12-24T05:40:47.784Z,47.47
2022-12-24T05:43:15.434Z,44.20
2022-12-24T05:45:43.188Z,48.20
2022-12-24T05:48:12.327Z,47.73
2022-12-24T05:50:40.388Z,48.43
2022-12-24T05:53:08.512Z,46.63
2022-12-24T05:55:36.210Z,44.63
2022-12-24T05:58:03.866Z,46.23
2022-12-24T06:00:31.541Z,45.40
2022-12-24T06:02:59.444Z,48.17
2022-12-24T06:05:28.542Z,49.90
2022-12-24T06:07:56.214Z,49.53
2022-12-24T06:10:23.965Z,50.50
2022-12-24T06:12:51.568Z,44.57
2022-12-24T06:15:23.853Z,40.23
2022-12-24T06:17:52.131Z,45.00
2022-12-24T06:20:20.431Z,46.93
2022-12-24T06:22:49.440Z,45.60
2022-12-24T06:25:17.281Z,44.80
2022-12-24T06:27:44.886Z,44.40
2022-12-24T06:30:12.738Z,46.10
2022-12-24T06:32:40.409Z,45.97
2022-12-24T06:35:08.310Z,43.17
2022-12-24T06:37:35.929Z,42.03
2022-12-24T06:40:05.293Z,37.60
2022-12-24T06:42:32.912Z,38.93
2022-12-24T06:45:07.552Z,38.77
2022-12-24T06:47:36.092Z,45.00
2022-12-24T06:50:04.059Z,41.23
2022-12-24T06:52:31.715Z,43.57
2022-12-24T06:54:59.399Z,45.80
2022-12-24T06:57:28.437Z,51.73
2022-12-24T06:59:56.095Z,57.40
2022-12-24T07:02:24.402Z,60.37
2022-12-24T07:04:52.181Z,53.97
2022-12-24T07:07:19.819Z,42.17
2022-12-24T07:09:47.564Z,33.20
2022-12-24T07:12:15.183Z,40.10
2022-12-24T07:14:44.206Z,36.47
2022-12-24T07:17:12.029Z,34.30
2022-12-24T07:19:40.265Z,30.17
2022-12-24T07:22:13.453Z,25.83
2022-12-24T07:24:43.042Z,28.33
2022-12-24T07:27:10.812Z,23.23
2022-12-24T07:29:38.453Z,24.13
2022-12-24T07:32:07.817Z,23.77
2022-12-24T07:34:35.625Z,24.43
2022-12-24T07:37:03.393Z,24.23
2022-12-24T07:39:31.174Z,25.83
2022-12-24T07:41:58.800Z,26.20
2022-12-24T07:44:26.494Z,25.30
2022-12-24T07:46:54.201Z,25.47
2022-12-24T07:49:23.273Z,27.03
2022-12-24T07:51:50.931Z,24.77
2022-12-24T07:54:18.597Z,26.83
2022-12-24T07:56:46.206Z,25.37
2022-12-24T07:59:14.445Z,24.80
2022-12-24T08:01:42.593Z,24.87
2022-12-24T08:04:10.510Z,25.73
2022-12-24T08:06:39.538Z,24.87
2022-12-24T08:09:07.516Z,27.03
2022-12-24T08:11:35.261Z,27.43
2022-12-24T08:14:02.920Z,26.60
2022-12-24T08:16:30.670Z,24.73
2022-12-24T08:18:58.415Z,22.57
2022-12-24T08:21:26.087Z,22.40
2022-12-24T08:23:55.181Z,20.07
2022-12-24T08:26:22.841Z,18.40
2022-12-24T08:28:50.476Z,19.67
2022-12-24T08:31:18.307Z,20.60
2022-12-24T08:33:45.967Z,22.03
2022-12-24T08:36:13.618Z,23.60
2022-12-24T08:38:41.281Z,23.63
2022-12-24T08:41:10.326Z,24.50
2022-12-24T08:43:37.994Z,23.57
2022-12-24T08:46:06.606Z,24.57
2022-12-24T08:48:35.264Z,26.23
2022-12-24T08:51:07.044Z,29.03
2022-12-24T08:53:34.854Z,25.77
2022-12-24T08:56:03.215Z,25.47
2022-12-24T08:58:32.664Z,27.43
2022-12-24T09:01:00.775Z,27.27
2022-12-24T09:03:29.103Z,26.77
2022-12-24T09:05:56.875Z,24.80
2022-12-24T09:08:24.480Z,27.57
2022-12-24T09:10:52.130Z,25.53
2022-12-24T09:13:19.837Z,29.30
2022-12-24T09:15:55.348Z,27.57
2022-12-24T09:18:23.287Z,29.03
2022-12-24T09:20:56.872Z,27.70
2022-12-24T09:23:25.060Z,28.63
2022-12-24T09:25:52.728Z,27.40
2022-12-24T09:28:20.413Z,27.93
2022-12-24T09:30:57.223Z,27.07
2022-12-24T09:33:25.002Z,27.03
2022-12-24T09:35:52.822Z,25.97
2022-12-24T09:38:20.813Z,26.57
2022-12-24T09:40:48.837Z,28.40
2022-12-24T09:43:18.051Z,29.90
2022-12-24T09:45:49.621Z,30.87
2022-12-24T09:48:19.822Z,27.77
2022-12-24T09:50:50.879Z,29.70
2022-12-24T09:53:20.332Z,30.70
2022-12-24T09:55:49.640Z,30.27
2022-12-24T09:58:20.549Z,29.13
2022-12-24T10:00:50.315Z,28.70
2022-12-24T10:03:19.842Z,30.63
2022-12-24T10:05:52.945Z,27.97
2022-12-24T10:08:23.668Z,30.40
2022-12-24T10:10:53.310Z,30.97
2022-12-24T10:13:26.270Z,28.43
2022-12-24T10:15:58.038Z,28.73
2022-12-24T10:18:33.015Z,30.50
2022-12-24T10:21:05.252Z,27.10
2022-12-24T10:23:37.684Z,29.27
2022-12-24T10:26:09.473Z,28.60
2022-12-24T10:28:42.243Z,27.17
2022-12-24T10:31:10.545Z,27.30
2022-12-24T10:33:42.603Z,27.40
2022-12-24T10:36:12.658Z,25.87
2022-12-24T10:38:40.327Z,27.70
2022-12-24T10:41:08.819Z,29.00
2022-12-24T10:43:37.126Z,29.13
2022-12-24T10:46:07.748Z,30.03
2022-12-24T10:48:38.675Z,29.30
2022-12-24T10:51:13.393Z,27.93
2022-12-24T10:53:43.154Z,29.50
2022-12-24T10:56:11.812Z,25.97
2022-12-24T10:58:44.688Z,29.03
2022-12-24T11:01:12.456Z,27.07
2022-12-24T11:03:40.403Z,31.43
2022-12-24T11:06:10.984Z,32.67
2022-12-24T11:08:40.135Z,32.57
2022-12-24T11:11:09.268Z,30.50
2022-12-24T11:13:41.549Z,32.83
2022-12-24T11:16:16.419Z,33.70
2022-12-24T11:18:50.763Z,33.77
2022-12-24T11:21:24.872Z,33.13
2022-12-24T11:23:56.780Z,30.50
2022-12-24T11:26:25.559Z,29.20
2022-12-24T11:29:08.190Z,30.17
2022-12-24T11:31:37.821Z,30.47
2022-12-24T11:34:18.975Z,29.07
2022-12-24T11:36:47.997Z,27.13
2022-12-24T11:39:19.856Z,32.00
2022-12-24T11:41:47.881Z,29.27
2022-12-24T11:44:15.745Z,31.30
2022-12-24T11:46:44.866Z,29.43
2022-12-24T11:49:18.127Z,26.30
2022-12-24T11:52:02.137Z,28.20
2022-12-24T11:54:31.247Z,26.00
2022-12-24T11:56:59.888Z,27.57
2022-12-24T11:59:30.403Z,28.80
2022-12-24T12:02:00.051Z,28.70
2022-12-24T12:04:30.118Z,28.93
2022-12-24T12:07:00.661Z,26.87
2022-12-24T12:09:30.632Z,28.40
2022-12-24T12:12:01.477Z,26.50
2022-12-24T12:14:31.545Z,25.43
2022-12-24T12:17:04.182Z,25.00
2022-12-24T12:19:33.976Z,25.43
2022-12-24T12:22:04.728Z,24.00
2022-12-24T12:24:35.377Z,24.83
2022-12-24T12:27:06.321Z,24.60
2022-12-24T12:29:35.882Z,25.90
2022-12-24T12:32:05.514Z,24.53
2022-12-24T12:34:36.044Z,25.77
2022-12-24T12:37:14.234Z,24.23
2022-12-24T12:39:42.714Z,24.27
2022-12-24T12:42:15.915Z,22.67
2022-12-24T12:45:00.921Z,22.13
2022-12-24T12:47:34.371Z,22.43
2022-12-24T12:50:04.854Z,22.73
2022-12-24T12:52:40.155Z,26.60
2022-12-24T12:55:24.083Z,30.30
2022-12-24T12:57:52.979Z,35.83
2022-12-24T13:00:21.028Z,34.93
2022-12-24T13:02:57.838Z,33.87
2022-12-24T13:05:36.088Z,32.77
2022-12-24T13:08:11.408Z,34.20
2022-12-24T13:10:48.217Z,30.87
2022-12-24T13:13:31.413Z,32.50
2022-12-24T13:16:07.215Z,31.43
2022-12-24T13:18:41.175Z,27.60
2022-12-24T13:21:16.861Z,31.90
2022-12-24T13:23:46.020Z,30.80
2022-12-24T13:26:15.374Z,31.43
2022-12-24T13:28:43.575Z,29.47
2022-12-24T13:31:30.289Z,32.50
2022-12-24T13:34:27.419Z,32.77
2022-12-24T13:37:02.845Z,33.27
2022-12-24T13:39:51.864Z,32.87
2022-12-24T13:42:34.333Z,32.03
2022-12-24T13:45:19.299Z,35.13
2022-12-24T13:47:47.037Z,33.83
2022-12-24T13:50:22.426Z,35.13
2022-12-24T13:52:52.416Z,33.67
2022-12-24T13:55:21.813Z,33.90
2022-12-24T13:57:57.627Z,35.53
2022-12-24T14:00:46.355Z,33.93
2022-12-24T14:03:23.001Z,32.53
2022-12-24T14:05:52.062Z,34.70
2022-12-24T14:08:27.968Z,34.13
2022-12-24T14:11:04.470Z,32.40
2022-12-24T14:13:52.325Z,31.20
2022-12-24T14:16:21.161Z,33.40
2022-12-24T14:18:50.977Z,34.80
2022-12-24T14:21:19.846Z,36.10
2022-12-24T14:23:52.736Z,36.63
2022-12-24T14:26:22.791Z,37.23
2022-12-24T14:28:55.560Z,34.80
2022-12-24T14:31:23.846Z,36.10
2022-12-24T14:33:51.724Z,36.27
2022-12-24T14:36:24.900Z,35.17
2022-12-24T14:38:52.655Z,36.37
2022-12-24T14:41:31.183Z,38.80
2022-12-24T14:44:05.122Z,37.83
2022-12-24T14:46:35.855Z,40.10
2022-12-24T14:49:08.038Z,40.13
2022-12-24T14:51:39.763Z,38.67
2022-12-24T14:54:15.075Z,42.00
2022-12-24T14:56:44.170Z,42.17
2022-12-24T14:59:18.930Z,45.20
2022-12-24T15:01:47.090Z,44.20
2022-12-24T15:04:18.680Z,44.93
2022-12-24T15:06:49.491Z,50.20
2022-12-24T15:09:20.089Z,49.47
2022-12-24T15:11:50.724Z,51.87
2022-12-24T15:14:19.169Z,50.67
2022-12-24T15:16:51.980Z,54.57
2022-12-24T15:19:23.439Z,43.50
2022-12-24T15:21:51.173Z,45.93
2022-12-24T15:24:25.776Z,50.43
2022-12-24T15:26:55.180Z,46.50
2022-12-24T15:29:24.124Z,42.70
2022-12-24T15:31:55.694Z,40.57
2022-12-24T15:34:27.362Z,35.60
2022-12-24T15:37:01.850Z,40.77
2022-12-24T15:39:29.555Z,32.80
2022-12-24T15:42:18.778Z,29.83
2022-12-24T15:44:50.747Z,29.27
2022-12-24T15:47:19.230Z,33.40
2022-12-24T15:49:48.971Z,41.57
2022-12-24T15:52:18.784Z,45.13
2022-12-24T15:54:52.172Z,50.67
2022-12-24T15:57:25.810Z,50.77
2022-12-24T15:59:55.105Z,48.77
2022-12-24T16:02:36.744Z,51.67
2022-12-24T16:05:26.358Z,55.37
2022-12-24T16:08:12.480Z,53.47
2022-12-24T16:10:41.113Z,54.03
2022-12-24T16:13:19.446Z,50.97
2022-12-24T16:15:48.852Z,54.90
2022-12-24T16:18:18.316Z,48.50
2022-12-24T16:20:50.045Z,51.93
2022-12-24T16:23:20.990Z,46.47
2022-12-24T16:25:48.937Z,52.57
2022-12-24T16:28:22.493Z,75.23
2022-12-24T16:30:50.965Z,89.97
2022-12-24T16:33:19.736Z,77.40
2022-12-24T16:35:47.636Z,71.40
2022-12-24T16:38:15.328Z,68.93
2022-12-24T16:40:43.363Z,73.80
2022-12-24T16:43:28.698Z,72.90
2022-12-24T16:46:01.102Z,69.37
2022-12-24T16:48:28.761Z,68.10
2022-12-24T16:50:56.402Z,62.53
2022-12-24T16:53:24.363Z,73.13
2022-12-24T16:55:53.439Z,44.37
2022-12-24T16:58:21.373Z,63.57
2022-12-24T17:00:49.445Z,54.57
2022-12-24T17:03:18.609Z,47.23
2022-12-24T17:05:46.356Z,45.87
2022-12-24T17:08:14.391Z,45.50
2022-12-24T17:10:42.036Z,44.47
2022-12-24T17:13:09.706Z,46.80
2022-12-24T17:15:37.541Z,46.67
2022-12-24T17:18:05.924Z,51.77
2022-12-24T17:20:34.901Z,54.10
2022-12-24T17:23:02.717Z,52.83
2022-12-24T17:25:30.378Z,51.40
2022-12-24T17:27:57.999Z,46.43
2022-12-24T17:30:25.712Z,49.63
2022-12-24T17:32:53.384Z,52.43
2022-12-24T17:35:20.992Z,56.27
2022-12-24T17:37:50.059Z,56.23
2022-12-24T17:40:17.817Z,57.23
2022-12-24T17:42:45.485Z,52.77
2022-12-24T17:45:13.147Z,46.70
2022-12-24T17:47:41.402Z,56.53
2022-12-24T17:50:09.818Z,46.83
2022-12-24T17:52:37.553Z,50.53
2022-12-24T17:55:07.449Z,42.90
2022-12-24T17:57:35.103Z,33.17
2022-12-24T18:00:02.804Z,31.20
2022-12-24T18:02:30.572Z,29.33
2022-12-24T18:04:58.910Z,27.90
2022-12-24T18:07:26.767Z,22.40
2022-12-24T18:09:54.410Z,23.07
2022-12-24T18:12:23.455Z,20.83
2022-12-24T18:14:51.164Z,17.17
2022-12-24T18:17:19.234Z,17.90
2022-12-24T18:19:46.854Z,16.00
2022-12-24T18:22:14.512Z,14.43
2022-12-24T18:24:42.183Z,13.00
2022-12-24T18:27:09.902Z,12.40
2022-12-24T18:29:41.710Z,9.97
2022-12-24T18:32:09.600Z,11.30
2022-12-24T18:34:37.438Z,11.20
2022-12-24T18:37:05.087Z,11.90
2022-12-24T18:39:32.742Z,10.83
2022-12-24T18:42:00.476Z,11.60
2022-12-24T18:44:28.176Z,10.13
2022-12-24T18:46:57.254Z,11.07
2022-12-24T18:49:24.944Z,10.80
2022-12-24T18:51:52.568Z,10.03
2022-12-24T18:54:20.425Z,10.53
2022-12-24T18:56:50.801Z,11.23
2022-12-24T18:59:18.483Z,9.73
2022-12-24T19:01:46.200Z,9.97
2022-12-24T19:04:15.889Z,10.10
2022-12-24T19:06:48.968Z,10.33
2022-12-24T19:09:20.382Z,10.87
2022-12-24T19:11:48.024Z,11.90
2022-12-24T19:14:15.688Z,11.97
2022-12-24T19:16:43.462Z,11.10
2022-12-24T19:19:12.516Z,11.20
2022-12-24T19:21:41.599Z,9.70
2022-12-24T19:24:10.883Z,8.80
2022-12-24T19:26:38.835Z,7.33
2022-12-24T19:29:06.486Z,8.70
2022-12-24T19:31:34.236Z,7.53
2022-12-24T19:34:02.248Z,6.80
2022-12-24T19:36:30.573Z,6.00
2022-12-24T19:38:59.942Z,6.13
2022-12-24T19:41:28.439Z,5.57
2022-12-24T19:43:56.800Z,5.87
2022-12-24T19:46:25.625Z,5.70
2022-12-24T19:48:54.167Z,5.47
2022-12-24T19:51:22.021Z,6.17
2022-12-24T19:53:49.928Z,5.93
2022-12-24T19:56:19.888Z,6.40
2022-12-24T19:58:47.587Z,6.17
2022-12-24T20:01:16.606Z,5.87
2022-12-24T20:03:45.043Z,5.90
2022-12-24T20:06:13.153Z,5.30
2022-12-24T20:08:40.917Z,5.30
2022-12-24T20:11:09.415Z,5.70
2022-12-24T20:13:39.200Z,5.10
2022-12-24T20:16:07.967Z,5.00
2022-12-24T20:18:36.152Z,4.63
2022-12-24T20:21:04.609Z,5.50
2022-12-24T20:23:32.325Z,5.47
2022-12-24T20:26:00.325Z,4.33
2022-12-24T20:28:28.556Z,4.70
2022-12-24T20:30:57.707Z,5.00
2022-12-24T20:33:25.497Z,4.67
2022-12-24T20:35:53.195Z,5.07
2022-12-24T20:38:20.984Z,5.13
2022-12-24T20:40:48.661Z,5.30
2022-12-24T20:43:19.807Z,5.13
2022-12-24T20:45:51.851Z,5.23
2022-12-24T20:48:20.862Z,4.80
2022-12-24T20:50:48.527Z,4.00
2022-12-24T20:53:19.229Z,4.57
2022-12-24T20:55:50.912Z,5.27
2022-12-24T20:58:19.076Z,6.10
2022-12-24T21:00:47.050Z,5.30
2022-12-24T21:03:14.860Z,5.37
2022-12-24T21:05:44.367Z,5.10
2022-12-24T21:08:13.287Z,5.20
2022-12-24T21:10:41.479Z,7.63
2022-12-24T21:13:08.393Z,9.30
2022-12-24T21:15:36.897Z,9.77
2022-12-24T21:18:11.210Z,10.77
2022-12-24T21:20:43.486Z,9.67
2022-12-24T21:23:12.551Z,7.93
2022-12-24T21:25:40.197Z,6.33
2022-12-24T21:28:07.828Z,7.47
2022-12-24T21:30:35.588Z,7.60
2022-12-24T21:33:03.212Z,7.17
2022-12-24T21:35:30.900Z,7.37
2022-12-24T21:37:58.575Z,6.90
2022-12-24T21:40:27.634Z,6.77
2022-12-24T21:42:55.258Z,6.17
2022-12-24T21:45:22.988Z,6.77
2022-12-24T21:47:50.613Z,6.87
2022-12-24T21:50:36.255Z,7.73
2022-12-24T21:53:17.796Z,7.27
2022-12-24T21:55:46.889Z,7.33
2022-12-24T21:58:14.522Z,7.17
2022-12-24T22:00:42.211Z,6.80
2022-12-24T22:03:10.083Z,6.30
2022-12-24T22:05:37.783Z,7.20
2022-12-24T22:08:23.475Z,5.60
2022-12-24T22:11:10.033Z,5.50
2022-12-24T22:13:37.785Z,5.57
2022-12-24T22:16:05.976Z,5.40
2022-12-24T22:18:33.613Z,5.13
2022-12-24T22:21:02.927Z,5.43
2022-12-24T22:23:30.625Z,5.63
2022-12-24T22:25:59.851Z,5.90
2022-12-24T22:28:29.338Z,5.10
2022-12-24T22:30:57.066Z,5.57
2022-12-24T22:33:26.251Z,4.43
2022-12-24T22:35:53.890Z,5.30
2022-12-24T22:38:21.750Z,5.77
2022-12-24T22:40:49.447Z,5.30
2022-12-24T22:43:18.451Z,5.40
2022-12-24T22:45:46.210Z,5.33
2022-12-24T22:48:13.913Z,5.07
2022-12-24T22:50:41.960Z,4.17
2022-12-24T22:53:09.683Z,4.70
2022-12-24T22:55:37.916Z,5.80
2022-12-24T22:58:05.649Z,5.73
2022-12-24T23:00:41.705Z,4.70
2022-12-24T23:03:09.571Z,5.27
2022-12-24T23:05:37.552Z,5.17
2022-12-24T23:08:05.982Z,5.60
2022-12-24T23:10:33.672Z,5.30
2022-12-24T23:13:18.871Z,5.80
2022-12-24T23:15:47.912Z,6.20
2022-12-24T23:18:16.022Z,5.53
2022-12-24T23:20:46.406Z,6.57
2022-12-24T23:23:14.213Z,5.67
2022-12-24T23:25:42.052Z,6.80
2022-12-24T23:28:09.792Z,6.47
2022-12-24T23:30:37.467Z,6.87
2022-12-24T23:33:06.517Z,5.60
2022-12-24T23:35:34.232Z,5.40
2022-12-24T23:38:01.861Z,4.63
2022-12-24T23:40:29.637Z,4.43
2022-12-24T23:42:57.359Z,4.60
2022-12-24T23:45:25.024Z,4.90
2022-12-24T23:47:52.687Z,4.53
2022-12-24T23:50:22.091Z,4.33
2022-12-24T23:52:49.760Z,5.40
2022-12-24T23:55:17.510Z,5.57
2022-12-24T23:57:45.227Z,6.10
